Terminal Aerodrome Forecast
Issued by NWS

Current Version | Previous Version | Text Only | Print | Product List | Glossary On
Versions: 1 2 3 4 5 6 7 8 9 10 11 12 13 14 15 16
000
FTUS42 KTAE 040539
TAFDHN
TAF
KDHN 040539Z 0406/0506 22006KT P6SM FEW250
      TEMPO 0410/0413 BKN015
     FM041300 27007KT P6SM SCT025 BKN250
     FM041700 VRB15G25KT 2SM TSRA SCT010 BKN030CB
     FM050100 24005KT P6SM BKN250
      AMD NOT SKED=

USA.gov is the U.S. government's official web portal to all federal, state and local government web resources and services.